Briefing drone pour Annonay

Rechercher une autre localisation

Conditions de vol :


Nous sommes le : Lundi 06 février 2023
Il est 13:35 UTC (14:35 LT)

Lever de soleil : 06:29 UTC (07:29 LT)
Coucher de soleil : 17:21 UTC (18:21 LT)

Météo

L'essentiel des conditions de vol

VIGILANCE MÉTÉO FRANCE - Ardèche (07)
Vigilance Jaune : Neige-verglas
CARTES DES FRONTS
METAR de LFMH
LFMH 061330Z AUTO 35008KT 9999 SCT021 OVC028 04/00 Q1032

Date d'émission: 06/02/2023
Heure d'émission: 13:30 UTC
Vent: 350° pour 8 KT (15 km/h)
Visibilité horizontale: > 10 km
Plafond :
- Nuages épars à 2100ft (640m)
- Couvert à 2800ft (853m)
Température: 4 °C
Point de rosée: 0 °C
Humidité: 75%
Pression (QNH): 1032 hPa
TAF de LFMH
LFMH 161901Z 1619/1712 CNL

Conditions prévues :

Heure d'émission : Bulletin éffectué le 16 à 19:00 UTC
Prévision : Valide du 16 a 19:00 UTC au 17 a 12:00 UTC
Nuages : à 0ft (0 m)
WEBCAM POUR ANNONAY

Réglementation

Voler en sécurité

CARTES AERONAUTIQUE 1/500.000
CARTE AZBA (Reseau basse altitude)
CARTES VAC (LFMH)
SUP AIP




Chargement des AIP...
NOTAM (ANNONAY + Terrain à proximité / FIR )




Chargement des NOTAMS...
CONTACT PREFECTURE 07
Ardèche (07) : [email protected]


Avertissement : Les données mises à disposition sont indicatives. Oxygène Drone ne pourra être tenu responsable de dégâts causés aux biens et aux personnes.